sensor_id;sensor_type;location;lat;lon;timestamp;P1;durP1;ratioP1;P2;durP2;ratioP2
73515;SDS011;61763;51.416;5.442;2023-07-28T00:00:42;7.07;;;4.05;;
73515;SDS011;61763;51.416;5.442;2023-07-28T00:03:07;6.15;;;3.88;;
73515;SDS011;61763;51.416;5.442;2023-07-28T00:05:33;8.50;;;2.95;;
73515;SDS011;61763;51.416;5.442;2023-07-28T00:07:59;6.32;;;3.60;;
73515;SDS011;61763;51.416;5.442;2023-07-28T00:10:24;8.18;;;3.88;;
73515;SDS011;61763;51.416;5.442;2023-07-28T00:12:49;9.10;;;4.03;;
73515;SDS011;61763;51.416;5.442;2023-07-28T00:15:15;9.27;;;3.00;;
73515;SDS011;61763;51.416;5.442;2023-07-28T00:17:40;6.72;;;4.18;;
73515;SDS011;61763;51.416;5.442;2023-07-28T00:22:33;8.85;;;4.85;;
73515;SDS011;61763;51.416;5.442;2023-07-28T00:24:59;8.20;;;4.15;;
73515;SDS011;61763;51.416;5.442;2023-07-28T00:27:24;6.45;;;3.85;;
73515;SDS011;61763;51.416;5.442;2023-07-28T00:29:49;6.28;;;2.63;;
73515;SDS011;61763;51.416;5.442;2023-07-28T00:32:15;7.80;;;3.97;;
73515;SDS011;61763;51.416;5.442;2023-07-28T00:34:40;7.15;;;4.18;;
73515;SDS011;61763;51.416;5.442;2023-07-28T00:37:05;8.70;;;4.25;;
73515;SDS011;61763;51.416;5.442;2023-07-28T00:39:31;7.40;;;2.63;;
73515;SDS011;61763;51.416;5.442;2023-07-28T00:41:56;8.38;;;3.58;;
73515;SDS011;61763;51.416;5.442;2023-07-28T00:44:23;8.23;;;4.47;;
73515;SDS011;61763;51.416;5.442;2023-07-28T00:46:48;7.63;;;2.85;;
73515;SDS011;61763;51.416;5.442;2023-07-28T00:49:14;6.85;;;2.83;;
73515;SDS011;61763;51.416;5.442;2023-07-28T00:51:39;8.25;;;4.00;;
73515;SDS011;61763;51.416;5.442;2023-07-28T00:54:05;8.10;;;3.05;;
73515;SDS011;61763;51.416;5.442;2023-07-28T00:56:31;8.30;;;4.03;;
73515;SDS011;61763;51.416;5.442;2023-07-28T00:58:57;8.38;;;3.63;;
73515;SDS011;61763;51.416;5.442;2023-07-28T01:01:22;7.43;;;4.10;;
73515;SDS011;61763;51.416;5.442;2023-07-28T01:03:48;8.35;;;3.75;;
73515;SDS011;61763;51.416;5.442;2023-07-28T01:06:18;7.70;;;3.05;;
73515;SDS011;61763;51.416;5.442;2023-07-28T01:08:55;7.22;;;2.75;;
73515;SDS011;61763;51.416;5.442;2023-07-28T01:11:28;7.18;;;4.10;;
73515;SDS011;61763;51.416;5.442;2023-07-28T01:13:54;9.15;;;3.58;;
73515;SDS011;61763;51.416;5.442;2023-07-28T01:16:20;9.23;;;3.92;;
73515;SDS011;61763;51.416;5.442;2023-07-28T01:18:47;8.80;;;4.50;;
73515;SDS011;61763;51.416;5.442;2023-07-28T01:21:31;8.60;;;4.10;;
73515;SDS011;61763;51.416;5.442;2023-07-28T01:26:37;6.90;;;2.70;;
73515;SDS011;61763;51.416;5.442;2023-07-28T01:29:04;9.50;;;3.63;;
73515;SDS011;61763;51.416;5.442;2023-07-28T01:31:31;7.60;;;2.30;;
73515;SDS011;61763;51.416;5.442;2023-07-28T01:33:56;7.40;;;3.22;;
73515;SDS011;61763;51.416;5.442;2023-07-28T01:36:22;7.40;;;3.72;;
73515;SDS011;61763;51.416;5.442;2023-07-28T01:38:47;6.28;;;2.40;;
73515;SDS011;61763;51.416;5.442;2023-07-28T01:41:12;8.70;;;3.60;;
73515;SDS011;61763;51.416;5.442;2023-07-28T01:43:38;6.13;;;2.55;;
73515;SDS011;61763;51.416;5.442;2023-07-28T01:46:03;6.30;;;2.88;;
73515;SDS011;61763;51.416;5.442;2023-07-28T01:48:28;9.85;;;4.10;;
73515;SDS011;61763;51.416;5.442;2023-07-28T01:50:54;9.43;;;2.80;;
73515;SDS011;61763;51.416;5.442;2023-07-28T01:53:19;7.65;;;2.83;;
73515;SDS011;61763;51.416;5.442;2023-07-28T01:55:45;6.82;;;3.10;;
73515;SDS011;61763;51.416;5.442;2023-07-28T01:58:10;7.03;;;3.05;;
73515;SDS011;61763;51.416;5.442;2023-07-28T02:00:36;6.13;;;3.20;;
73515;SDS011;61763;51.416;5.442;2023-07-28T02:03:01;6.72;;;2.38;;
73515;SDS011;61763;51.416;5.442;2023-07-28T02:05:28;8.70;;;3.58;;
73515;SDS011;61763;51.416;5.442;2023-07-28T02:07:54;9.45;;;4.53;;
73515;SDS011;61763;51.416;5.442;2023-07-28T02:10:19;10.65;;;4.20;;
73515;SDS011;61763;51.416;5.442;2023-07-28T02:12:45;9.57;;;4.00;;
73515;SDS011;61763;51.416;5.442;2023-07-28T02:15:11;8.52;;;4.82;;
73515;SDS011;61763;51.416;5.442;2023-07-28T02:17:37;12.38;;;4.00;;
73515;SDS011;61763;51.416;5.442;2023-07-28T02:20:02;9.55;;;4.28;;
73515;SDS011;61763;51.416;5.442;2023-07-28T02:22:28;12.57;;;3.75;;
73515;SDS011;61763;51.416;5.442;2023-07-28T02:24:54;8.48;;;2.97;;
73515;SDS011;61763;51.416;5.442;2023-07-28T02:27:19;10.98;;;4.53;;
73515;SDS011;61763;51.416;5.442;2023-07-28T02:29:45;12.80;;;5.70;;
73515;SDS011;61763;51.416;5.442;2023-07-28T02:32:10;10.52;;;4.88;;
73515;SDS011;61763;51.416;5.442;2023-07-28T02:34:36;13.00;;;4.53;;
73515;SDS011;61763;51.416;5.442;2023-07-28T02:37:01;13.85;;;4.75;;
73515;SDS011;61763;51.416;5.442;2023-07-28T02:39:27;15.43;;;6.65;;
73515;SDS011;61763;51.416;5.442;2023-07-28T02:41:53;15.95;;;5.15;;
73515;SDS011;61763;51.416;5.442;2023-07-28T02:44:19;15.63;;;6.47;;
73515;SDS011;61763;51.416;5.442;2023-07-28T02:46:44;16.80;;;6.80;;
73515;SDS011;61763;51.416;5.442;2023-07-28T02:49:09;16.98;;;6.90;;
73515;SDS011;61763;51.416;5.442;2023-07-28T02:51:35;16.17;;;7.60;;
73515;SDS011;61763;51.416;5.442;2023-07-28T02:54:00;16.88;;;6.78;;
73515;SDS011;61763;51.416;5.442;2023-07-28T02:56:26;20.13;;;9.05;;
73515;SDS011;61763;51.416;5.442;2023-07-28T02:58:51;18.40;;;8.15;;
73515;SDS011;61763;51.416;5.442;2023-07-28T03:01:17;21.35;;;8.25;;
73515;SDS011;61763;51.416;5.442;2023-07-28T03:03:42;17.23;;;6.85;;
73515;SDS011;61763;51.416;5.442;2023-07-28T03:06:08;17.55;;;6.40;;
73515;SDS011;61763;51.416;5.442;2023-07-28T03:08:33;22.20;;;7.53;;
73515;SDS011;61763;51.416;5.442;2023-07-28T03:10:59;19.70;;;8.35;;
73515;SDS011;61763;51.416;5.442;2023-07-28T03:13:24;20.05;;;7.70;;
73515;SDS011;61763;51.416;5.442;2023-07-28T03:15:50;22.55;;;8.98;;
73515;SDS011;61763;51.416;5.442;2023-07-28T03:18:15;19.65;;;7.22;;
73515;SDS011;61763;51.416;5.442;2023-07-28T03:20:40;20.40;;;7.38;;
73515;SDS011;61763;51.416;5.442;2023-07-28T03:23:06;23.00;;;8.93;;
73515;SDS011;61763;51.416;5.442;2023-07-28T03:25:31;24.38;;;9.48;;
73515;SDS011;61763;51.416;5.442;2023-07-28T03:27:58;19.15;;;8.45;;
73515;SDS011;61763;51.416;5.442;2023-07-28T03:30:23;22.13;;;8.15;;
73515;SDS011;61763;51.416;5.442;2023-07-28T03:32:48;21.23;;;8.65;;
73515;SDS011;61763;51.416;5.442;2023-07-28T03:35:14;22.48;;;9.02;;
73515;SDS011;61763;51.416;5.442;2023-07-28T03:37:39;22.88;;;7.90;;
73515;SDS011;61763;51.416;5.442;2023-07-28T03:40:05;24.10;;;10.27;;
73515;SDS011;61763;51.416;5.442;2023-07-28T03:42:31;24.48;;;8.35;;
73515;SDS011;61763;51.416;5.442;2023-07-28T03:44:56;24.90;;;9.73;;
73515;SDS011;61763;51.416;5.442;2023-07-28T03:47:22;25.20;;;9.77;;
73515;SDS011;61763;51.416;5.442;2023-07-28T03:49:47;27.45;;;11.60;;
73515;SDS011;61763;51.416;5.442;2023-07-28T03:52:13;25.48;;;10.77;;
73515;SDS011;61763;51.416;5.442;2023-07-28T03:54:38;27.80;;;10.77;;
73515;SDS011;61763;51.416;5.442;2023-07-28T03:57:03;28.13;;;10.88;;
73515;SDS011;61763;51.416;5.442;2023-07-28T03:59:29;26.65;;;11.50;;
73515;SDS011;61763;51.416;5.442;2023-07-28T04:01:54;30.95;;;13.07;;
73515;SDS011;61763;51.416;5.442;2023-07-28T04:04:19;29.02;;;12.23;;
73515;SDS011;61763;51.416;5.442;2023-07-28T04:06:47;31.30;;;12.65;;
73515;SDS011;61763;51.416;5.442;2023-07-28T04:09:15;29.83;;;13.68;;
73515;SDS011;61763;51.416;5.442;2023-07-28T04:11:42;33.20;;;13.45;;
73515;SDS011;61763;51.416;5.442;2023-07-28T04:14:08;31.25;;;12.57;;
73515;SDS011;61763;51.416;5.442;2023-07-28T04:16:33;36.08;;;15.80;;
73515;SDS011;61763;51.416;5.442;2023-07-28T04:18:59;34.75;;;13.73;;
73515;SDS011;61763;51.416;5.442;2023-07-28T04:21:25;33.17;;;13.55;;
73515;SDS011;61763;51.416;5.442;2023-07-28T04:23:50;34.13;;;13.27;;
73515;SDS011;61763;51.416;5.442;2023-07-28T04:26:16;40.63;;;14.45;;
73515;SDS011;61763;51.416;5.442;2023-07-28T04:28:42;38.20;;;15.13;;
73515;SDS011;61763;51.416;5.442;2023-07-28T04:31:08;38.78;;;17.25;;
73515;SDS011;61763;51.416;5.442;2023-07-28T04:33:33;41.33;;;16.52;;
73515;SDS011;61763;51.416;5.442;2023-07-28T04:35:59;38.50;;;14.65;;
73515;SDS011;61763;51.416;5.442;2023-07-28T04:38:27;36.80;;;14.02;;
73515;SDS011;61763;51.416;5.442;2023-07-28T04:40:52;39.85;;;17.20;;
73515;SDS011;61763;51.416;5.442;2023-07-28T04:43:18;41.00;;;16.42;;
73515;SDS011;61763;51.416;5.442;2023-07-28T04:45:44;47.28;;;16.95;;
73515;SDS011;61763;51.416;5.442;2023-07-28T04:48:09;41.40;;;16.67;;
73515;SDS011;61763;51.416;5.442;2023-07-28T04:50:35;47.75;;;18.77;;
73515;SDS011;61763;51.416;5.442;2023-07-28T04:53:01;45.60;;;17.35;;
73515;SDS011;61763;51.416;5.442;2023-07-28T04:55:26;44.10;;;16.23;;
73515;SDS011;61763;51.416;5.442;2023-07-28T04:57:52;45.08;;;15.93;;
73515;SDS011;61763;51.416;5.442;2023-07-28T05:00:18;47.65;;;19.33;;
73515;SDS011;61763;51.416;5.442;2023-07-28T05:02:44;44.00;;;20.02;;
73515;SDS011;61763;51.416;5.442;2023-07-28T05:05:09;49.63;;;20.13;;
73515;SDS011;61763;51.416;5.442;2023-07-28T05:07:36;50.20;;;19.95;;
73515;SDS011;61763;51.416;5.442;2023-07-28T05:10:01;47.90;;;17.13;;
73515;SDS011;61763;51.416;5.442;2023-07-28T05:12:27;51.33;;;18.33;;
73515;SDS011;61763;51.416;5.442;2023-07-28T05:14:53;47.55;;;19.85;;
73515;SDS011;61763;51.416;5.442;2023-07-28T05:17:18;48.15;;;19.33;;
73515;SDS011;61763;51.416;5.442;2023-07-28T05:19:44;52.38;;;20.13;;
73515;SDS011;61763;51.416;5.442;2023-07-28T05:22:10;46.88;;;16.05;;
73515;SDS011;61763;51.416;5.442;2023-07-28T05:24:36;43.28;;;16.92;;
73515;SDS011;61763;51.416;5.442;2023-07-28T05:27:01;40.28;;;16.60;;
73515;SDS011;61763;51.416;5.442;2023-07-28T05:29:27;42.08;;;16.73;;
73515;SDS011;61763;51.416;5.442;2023-07-28T05:31:52;41.92;;;16.42;;
73515;SDS011;61763;51.416;5.442;2023-07-28T05:34:17;41.15;;;17.90;;
73515;SDS011;61763;51.416;5.442;2023-07-28T05:36:43;35.13;;;14.52;;
73515;SDS011;61763;51.416;5.442;2023-07-28T05:39:09;37.53;;;15.77;;
73515;SDS011;61763;51.416;5.442;2023-07-28T05:41:34;33.45;;;14.95;;
73515;SDS011;61763;51.416;5.442;2023-07-28T05:44:01;37.95;;;15.38;;
73515;SDS011;61763;51.416;5.442;2023-07-28T05:46:26;40.40;;;15.98;;
73515;SDS011;61763;51.416;5.442;2023-07-28T05:48:53;34.53;;;14.38;;
73515;SDS011;61763;51.416;5.442;2023-07-28T05:51:20;33.60;;;15.43;;
73515;SDS011;61763;51.416;5.442;2023-07-28T05:53:46;30.95;;;11.25;;
73515;SDS011;61763;51.416;5.442;2023-07-28T05:56:12;28.42;;;11.00;;
73515;SDS011;61763;51.416;5.442;2023-07-28T05:58:37;24.30;;;11.48;;
73515;SDS011;61763;51.416;5.442;2023-07-28T06:01:03;26.13;;;11.07;;
73515;SDS011;61763;51.416;5.442;2023-07-28T06:03:28;23.73;;;10.00;;
73515;SDS011;61763;51.416;5.442;2023-07-28T06:05:54;20.65;;;8.52;;
73515;SDS011;61763;51.416;5.442;2023-07-28T06:08:19;23.13;;;8.43;;
73515;SDS011;61763;51.416;5.442;2023-07-28T06:10:45;21.65;;;7.82;;
73515;SDS011;61763;51.416;5.442;2023-07-28T06:13:10;17.45;;;7.78;;
73515;SDS011;61763;51.416;5.442;2023-07-28T06:15:38;17.65;;;7.72;;
73515;SDS011;61763;51.416;5.442;2023-07-28T06:18:04;14.75;;;8.27;;
73515;SDS011;61763;51.416;5.442;2023-07-28T06:20:29;13.18;;;6.55;;
73515;SDS011;61763;51.416;5.442;2023-07-28T06:22:55;13.15;;;5.80;;
73515;SDS011;61763;51.416;5.442;2023-07-28T06:25:20;12.95;;;5.93;;
73515;SDS011;61763;51.416;5.442;2023-07-28T06:27:46;12.80;;;6.13;;
73515;SDS011;61763;51.416;5.442;2023-07-28T06:30:11;10.75;;;6.05;;
73515;SDS011;61763;51.416;5.442;2023-07-28T06:32:37;11.52;;;5.50;;
73515;SDS011;61763;51.416;5.442;2023-07-28T06:35:02;12.95;;;6.57;;
73515;SDS011;61763;51.416;5.442;2023-07-28T06:37:30;13.85;;;5.95;;
73515;SDS011;61763;51.416;5.442;2023-07-28T06:39:55;11.25;;;4.43;;
73515;SDS011;61763;51.416;5.442;2023-07-28T06:42:21;8.50;;;5.80;;
73515;SDS011;61763;51.416;5.442;2023-07-28T06:44:49;8.93;;;6.05;;
73515;SDS011;61763;51.416;5.442;2023-07-28T06:49:41;8.50;;;3.63;;
73515;SDS011;61763;51.416;5.442;2023-07-28T06:52:07;9.23;;;5.15;;
73515;SDS011;61763;51.416;5.442;2023-07-28T06:54:33;9.27;;;5.93;;
73515;SDS011;61763;51.416;5.442;2023-07-28T06:56:59;9.90;;;5.30;;
73515;SDS011;61763;51.416;5.442;2023-07-28T06:59:24;9.52;;;5.53;;
73515;SDS011;61763;51.416;5.442;2023-07-28T07:01:49;9.48;;;4.30;;
73515;SDS011;61763;51.416;5.442;2023-07-28T07:04:15;9.05;;;4.63;;
73515;SDS011;61763;51.416;5.442;2023-07-28T07:06:42;8.13;;;3.97;;
73515;SDS011;61763;51.416;5.442;2023-07-28T07:09:07;6.22;;;3.47;;
73515;SDS011;61763;51.416;5.442;2023-07-28T07:11:33;7.03;;;3.20;;
73515;SDS011;61763;51.416;5.442;2023-07-28T07:14:00;7.78;;;4.00;;
73515;SDS011;61763;51.416;5.442;2023-07-28T07:16:25;7.85;;;4.82;;
73515;SDS011;61763;51.416;5.442;2023-07-28T07:18:51;5.82;;;3.22;;
73515;SDS011;61763;51.416;5.442;2023-07-28T07:21:17;6.10;;;3.83;;
73515;SDS011;61763;51.416;5.442;2023-07-28T07:23:43;7.88;;;5.03;;
73515;SDS011;61763;51.416;5.442;2023-07-28T07:26:08;5.88;;;3.33;;
73515;SDS011;61763;51.416;5.442;2023-07-28T07:28:34;5.35;;;3.55;;
73515;SDS011;61763;51.416;5.442;2023-07-28T07:31:00;7.43;;;5.15;;
73515;SDS011;61763;51.416;5.442;2023-07-28T07:33:26;5.85;;;3.83;;
73515;SDS011;61763;51.416;5.442;2023-07-28T07:35:52;5.68;;;2.42;;
73515;SDS011;61763;51.416;5.442;2023-07-28T07:38:18;7.03;;;3.72;;
73515;SDS011;61763;51.416;5.442;2023-07-28T07:40:46;5.43;;;2.45;;
73515;SDS011;61763;51.416;5.442;2023-07-28T07:43:12;4.53;;;2.47;;
73515;SDS011;61763;51.416;5.442;2023-07-28T07:45:43;5.75;;;3.35;;
73515;SDS011;61763;51.416;5.442;2023-07-28T07:48:09;5.28;;;2.85;;
73515;SDS011;61763;51.416;5.442;2023-07-28T07:50:35;4.45;;;2.17;;
73515;SDS011;61763;51.416;5.442;2023-07-28T07:53:00;5.80;;;3.17;;
73515;SDS011;61763;51.416;5.442;2023-07-28T07:55:25;4.05;;;2.00;;
73515;SDS011;61763;51.416;5.442;2023-07-28T07:57:51;5.53;;;3.60;;
73515;SDS011;61763;51.416;5.442;2023-07-28T08:00:16;4.60;;;2.15;;
73515;SDS011;61763;51.416;5.442;2023-07-28T08:02:42;4.22;;;3.25;;
73515;SDS011;61763;51.416;5.442;2023-07-28T08:05:07;5.15;;;3.10;;
73515;SDS011;61763;51.416;5.442;2023-07-28T08:07:33;5.65;;;3.17;;
73515;SDS011;61763;51.416;5.442;2023-07-28T08:09:59;5.20;;;2.03;;
73515;SDS011;61763;51.416;5.442;2023-07-28T08:12:25;4.20;;;2.63;;
73515;SDS011;61763;51.416;5.442;2023-07-28T08:14:52;3.17;;;1.40;;
73515;SDS011;61763;51.416;5.442;2023-07-28T08:17:18;3.60;;;1.70;;
73515;SDS011;61763;51.416;5.442;2023-07-28T08:19:44;5.40;;;3.65;;
73515;SDS011;61763;51.416;5.442;2023-07-28T08:22:09;3.85;;;1.60;;
73515;SDS011;61763;51.416;5.442;2023-07-28T08:24:35;4.43;;;1.98;;
73515;SDS011;61763;51.416;5.442;2023-07-28T08:27:00;3.80;;;2.33;;
73515;SDS011;61763;51.416;5.442;2023-07-28T08:29:25;3.70;;;2.20;;
73515;SDS011;61763;51.416;5.442;2023-07-28T08:31:51;5.63;;;1.70;;
73515;SDS011;61763;51.416;5.442;2023-07-28T08:34:16;4.55;;;1.67;;
73515;SDS011;61763;51.416;5.442;2023-07-28T08:36:42;7.95;;;3.13;;
73515;SDS011;61763;51.416;5.442;2023-07-28T08:39:08;4.00;;;2.92;;
73515;SDS011;61763;51.416;5.442;2023-07-28T08:41:34;3.22;;;1.35;;
73515;SDS011;61763;51.416;5.442;2023-07-28T08:44:00;6.25;;;2.55;;
73515;SDS011;61763;51.416;5.442;2023-07-28T08:46:25;4.35;;;2.92;;
73515;SDS011;61763;51.416;5.442;2023-07-28T08:48:51;3.25;;;1.85;;
73515;SDS011;61763;51.416;5.442;2023-07-28T08:51:16;4.35;;;1.75;;
73515;SDS011;61763;51.416;5.442;2023-07-28T08:53:42;2.90;;;1.50;;
73515;SDS011;61763;51.416;5.442;2023-07-28T08:56:08;3.00;;;1.73;;
73515;SDS011;61763;51.416;5.442;2023-07-28T08:58:33;4.13;;;2.60;;
73515;SDS011;61763;51.416;5.442;2023-07-28T09:00:59;3.92;;;1.77;;
73515;SDS011;61763;51.416;5.442;2023-07-28T09:03:28;2.92;;;1.05;;
73515;SDS011;61763;51.416;5.442;2023-07-28T09:06:01;4.53;;;1.67;;
73515;SDS011;61763;51.416;5.442;2023-07-28T09:08:27;6.40;;;2.72;;
73515;SDS011;61763;51.416;5.442;2023-07-28T09:10:55;3.65;;;1.20;;
73515;SDS011;61763;51.416;5.442;2023-07-28T09:13:21;3.40;;;2.38;;
73515;SDS011;61763;51.416;5.442;2023-07-28T09:15:46;2.72;;;1.20;;
73515;SDS011;61763;51.416;5.442;2023-07-28T09:18:13;5.38;;;1.48;;
73515;SDS011;61763;51.416;5.442;2023-07-28T09:20:40;4.22;;;1.88;;
73515;SDS011;61763;51.416;5.442;2023-07-28T09:23:06;4.22;;;2.25;;
73515;SDS011;61763;51.416;5.442;2023-07-28T09:25:33;4.28;;;1.90;;
73515;SDS011;61763;51.416;5.442;2023-07-28T09:30:25;2.80;;;1.33;;
73515;SDS011;61763;51.416;5.442;2023-07-28T09:32:52;3.35;;;1.30;;
73515;SDS011;61763;51.416;5.442;2023-07-28T09:35:19;1.92;;;1.08;;
73515;SDS011;61763;51.416;5.442;2023-07-28T09:37:47;2.92;;;1.30;;
73515;SDS011;61763;51.416;5.442;2023-07-28T09:40:17;3.95;;;2.70;;
73515;SDS011;61763;51.416;5.442;2023-07-28T09:42:44;4.50;;;3.10;;
73515;SDS011;61763;51.416;5.442;2023-07-28T09:45:20;3.13;;;2.83;;
73515;SDS011;61763;51.416;5.442;2023-07-28T09:47:47;2.40;;;1.40;;
73515;SDS011;61763;51.416;5.442;2023-07-28T09:50:18;2.45;;;1.50;;
73515;SDS011;61763;51.416;5.442;2023-07-28T09:52:46;1.98;;;1.40;;
73515;SDS011;61763;51.416;5.442;2023-07-28T09:55:15;2.17;;;1.40;;
73515;SDS011;61763;51.416;5.442;2023-07-28T09:57:45;2.55;;;1.08;;
73515;SDS011;61763;51.416;5.442;2023-07-28T10:00:14;2.58;;;2.00;;
73515;SDS011;61763;51.416;5.442;2023-07-28T10:02:40;2.83;;;2.63;;
73515;SDS011;61763;51.416;5.442;2023-07-28T10:05:06;3.63;;;3.33;;
73515;SDS011;61763;51.416;5.442;2023-07-28T10:07:39;2.13;;;1.92;;
73515;SDS011;61763;51.416;5.442;2023-07-28T10:10:06;2.92;;;2.25;;
73515;SDS011;61763;51.416;5.442;2023-07-28T10:12:50;3.65;;;1.30;;
73515;SDS011;61763;51.416;5.442;2023-07-28T10:15:19;2.38;;;0.75;;
73515;SDS011;61763;51.416;5.442;2023-07-28T10:17:47;4.68;;;2.20;;
73515;SDS011;61763;51.416;5.442;2023-07-28T10:25:36;3.55;;;2.53;;
73515;SDS011;61763;51.416;5.442;2023-07-28T10:28:03;2.15;;;1.00;;
73515;SDS011;61763;51.416;5.442;2023-07-28T10:30:32;1.92;;;1.08;;
73515;SDS011;61763;51.416;5.442;2023-07-28T10:33:01;2.17;;;0.82;;
73515;SDS011;61763;51.416;5.442;2023-07-28T10:35:28;2.97;;;2.70;;
73515;SDS011;61763;51.416;5.442;2023-07-28T10:37:56;3.78;;;2.13;;
73515;SDS011;61763;51.416;5.442;2023-07-28T10:42:47;1.80;;;0.93;;
73515;SDS011;61763;51.416;5.442;2023-07-28T10:45:12;2.75;;;1.05;;
73515;SDS011;61763;51.416;5.442;2023-07-28T10:47:38;2.38;;;2.17;;
73515;SDS011;61763;51.416;5.442;2023-07-28T10:50:05;3.00;;;1.88;;
73515;SDS011;61763;51.416;5.442;2023-07-28T10:52:34;1.95;;;1.65;;
73515;SDS011;61763;51.416;5.442;2023-07-28T10:54:59;3.42;;;1.85;;
73515;SDS011;61763;51.416;5.442;2023-07-28T10:57:24;1.92;;;1.58;;
73515;SDS011;61763;51.416;5.442;2023-07-28T10:59:51;2.45;;;2.25;;
73515;SDS011;61763;51.416;5.442;2023-07-28T11:02:16;2.05;;;0.50;;
73515;SDS011;61763;51.416;5.442;2023-07-28T11:04:45;1.60;;;0.80;;
73515;SDS011;61763;51.416;5.442;2023-07-28T11:07:14;1.70;;;1.38;;
73515;SDS011;61763;51.416;5.442;2023-07-28T11:09:40;2.10;;;1.42;;
73515;SDS011;61763;51.416;5.442;2023-07-28T11:12:08;1.17;;;0.50;;
73515;SDS011;61763;51.416;5.442;2023-07-28T11:14:35;1.88;;;0.60;;
73515;SDS011;61763;51.416;5.442;2023-07-28T11:17:01;2.00;;;1.80;;
73515;SDS011;61763;51.416;5.442;2023-07-28T11:19:27;1.30;;;0.60;;
73515;SDS011;61763;51.416;5.442;2023-07-28T11:21:52;1.90;;;1.70;;
73515;SDS011;61763;51.416;5.442;2023-07-28T11:24:20;1.60;;;0.57;;
73515;SDS011;61763;51.416;5.442;2023-07-28T11:26:45;1.50;;;0.60;;
73515;SDS011;61763;51.416;5.442;2023-07-28T11:29:11;1.48;;;0.55;;
73515;SDS011;61763;51.416;5.442;2023-07-28T11:31:37;2.42;;;2.15;;
73515;SDS011;61763;51.416;5.442;2023-07-28T11:34:02;1.70;;;1.60;;
73515;SDS011;61763;51.416;5.442;2023-07-28T11:36:29;1.40;;;0.98;;
73515;SDS011;61763;51.416;5.442;2023-07-28T11:38:58;2.63;;;1.98;;
73515;SDS011;61763;51.416;5.442;2023-07-28T11:41:25;1.45;;;0.47;;
73515;SDS011;61763;51.416;5.442;2023-07-28T11:43:52;2.13;;;0.73;;
73515;SDS011;61763;51.416;5.442;2023-07-28T11:46:36;2.33;;;2.13;;
73515;SDS011;61763;51.416;5.442;2023-07-28T11:49:16;3.53;;;0.63;;
73515;SDS011;61763;51.416;5.442;2023-07-28T11:51:45;1.85;;;1.50;;
73515;SDS011;61763;51.416;5.442;2023-07-28T11:54:13;3.45;;;0.52;;
73515;SDS011;61763;51.416;5.442;2023-07-28T11:56:44;1.80;;;1.45;;
73515;SDS011;61763;51.416;5.442;2023-07-28T11:59:11;2.67;;;1.88;;
73515;SDS011;61763;51.416;5.442;2023-07-28T12:09:29;1.75;;;1.55;;
73515;SDS011;61763;51.416;5.442;2023-07-28T12:11:56;1.63;;;1.48;;
73515;SDS011;61763;51.416;5.442;2023-07-28T12:14:35;1.80;;;1.70;;
73515;SDS011;61763;51.416;5.442;2023-07-28T12:17:01;2.03;;;1.63;;
73515;SDS011;61763;51.416;5.442;2023-07-28T12:19:27;2.35;;;1.67;;
73515;SDS011;61763;51.416;5.442;2023-07-28T12:21:53;1.25;;;0.70;;
73515;SDS011;61763;51.416;5.442;2023-07-28T12:24:18;1.98;;;1.27;;
73515;SDS011;61763;51.416;5.442;2023-07-28T12:26:45;3.20;;;1.88;;
73515;SDS011;61763;51.416;5.442;2023-07-28T12:29:11;1.17;;;0.45;;
73515;SDS011;61763;51.416;5.442;2023-07-28T12:31:36;1.70;;;1.17;;
73515;SDS011;61763;51.416;5.442;2023-07-28T12:34:02;2.42;;;1.23;;
73515;SDS011;61763;51.416;5.442;2023-07-28T12:36:27;1.70;;;1.02;;
73515;SDS011;61763;51.416;5.442;2023-07-28T12:38:53;1.98;;;1.55;;
73515;SDS011;61763;51.416;5.442;2023-07-28T12:41:18;1.30;;;0.50;;
73515;SDS011;61763;51.416;5.442;2023-07-28T12:43:43;1.00;;;0.60;;
73515;SDS011;61763;51.416;5.442;2023-07-28T12:46:09;0.90;;;0.25;;
73515;SDS011;61763;51.416;5.442;2023-07-28T12:48:34;1.60;;;1.25;;
73515;SDS011;61763;51.416;5.442;2023-07-28T12:51:00;2.13;;;1.48;;
73515;SDS011;61763;51.416;5.442;2023-07-28T12:53:25;1.00;;;0.30;;
73515;SDS011;61763;51.416;5.442;2023-07-28T12:55:51;1.50;;;1.20;;
73515;SDS011;61763;51.416;5.442;2023-07-28T12:58:16;2.67;;;0.65;;
73515;SDS011;61763;51.416;5.442;2023-07-28T13:00:41;1.52;;;1.42;;
73515;SDS011;61763;51.416;5.442;2023-07-28T13:03:07;2.58;;;1.38;;
73515;SDS011;61763;51.416;5.442;2023-07-28T13:05:32;3.35;;;1.35;;
73515;SDS011;61763;51.416;5.442;2023-07-28T13:07:57;1.30;;;0.40;;
73515;SDS011;61763;51.416;5.442;2023-07-28T13:10:23;0.73;;;0.28;;
73515;SDS011;61763;51.416;5.442;2023-07-28T13:12:48;1.77;;;0.43;;
73515;SDS011;61763;51.416;5.442;2023-07-28T13:15:13;1.77;;;1.58;;
73515;SDS011;61763;51.416;5.442;2023-07-28T13:17:39;1.10;;;0.32;;
73515;SDS011;61763;51.416;5.442;2023-07-28T13:20:04;2.47;;;1.88;;
73515;SDS011;61763;51.416;5.442;2023-07-28T13:22:31;1.75;;;1.38;;
73515;SDS011;61763;51.416;5.442;2023-07-28T13:24:57;3.10;;;2.10;;
73515;SDS011;61763;51.416;5.442;2023-07-28T13:27:22;1.27;;;0.52;;
73515;SDS011;61763;51.416;5.442;2023-07-28T13:29:48;2.42;;;0.52;;
73515;SDS011;61763;51.416;5.442;2023-07-28T13:32:31;1.70;;;1.25;;
73515;SDS011;61763;51.416;5.442;2023-07-28T13:34:56;1.65;;;1.25;;
73515;SDS011;61763;51.416;5.442;2023-07-28T13:37:22;5.63;;;0.80;;
73515;SDS011;61763;51.416;5.442;2023-07-28T13:39:47;2.05;;;1.15;;
73515;SDS011;61763;51.416;5.442;2023-07-28T13:42:13;3.50;;;3.20;;
73515;SDS011;61763;51.416;5.442;2023-07-28T13:44:40;3.05;;;0.75;;
73515;SDS011;61763;51.416;5.442;2023-07-28T13:47:06;1.73;;;0.95;;
73515;SDS011;61763;51.416;5.442;2023-07-28T13:49:31;2.10;;;1.90;;
73515;SDS011;61763;51.416;5.442;2023-07-28T13:52:00;2.22;;;2.03;;
73515;SDS011;61763;51.416;5.442;2023-07-28T13:54:26;1.70;;;0.93;;
73515;SDS011;61763;51.416;5.442;2023-07-28T13:56:51;1.92;;;0.90;;
73515;SDS011;61763;51.416;5.442;2023-07-28T13:59:17;2.45;;;2.03;;
73515;SDS011;61763;51.416;5.442;2023-07-28T14:01:42;2.42;;;1.02;;
73515;SDS011;61763;51.416;5.442;2023-07-28T14:04:07;1.60;;;1.08;;
73515;SDS011;61763;51.416;5.442;2023-07-28T14:06:33;2.67;;;2.47;;
73515;SDS011;61763;51.416;5.442;2023-07-28T14:08:58;2.35;;;0.75;;
73515;SDS011;61763;51.416;5.442;2023-07-28T14:11:24;2.03;;;1.45;;
73515;SDS011;61763;51.416;5.442;2023-07-28T14:13:49;1.55;;;0.43;;
73515;SDS011;61763;51.416;5.442;2023-07-28T14:16:14;3.00;;;1.77;;
73515;SDS011;61763;51.416;5.442;2023-07-28T14:18:40;1.90;;;1.75;;
73515;SDS011;61763;51.416;5.442;2023-07-28T14:21:05;2.30;;;1.63;;
73515;SDS011;61763;51.416;5.442;2023-07-28T14:23:31;1.98;;;0.43;;
73515;SDS011;61763;51.416;5.442;2023-07-28T14:25:56;2.15;;;0.43;;
73515;SDS011;61763;51.416;5.442;2023-07-28T14:28:22;5.03;;;1.55;;
73515;SDS011;61763;51.416;5.442;2023-07-28T14:30:48;3.30;;;0.93;;
73515;SDS011;61763;51.416;5.442;2023-07-28T14:33:16;2.78;;;0.77;;
73515;SDS011;61763;51.416;5.442;2023-07-28T14:35:43;1.33;;;0.50;;
73515;SDS011;61763;51.416;5.442;2023-07-28T14:38:09;2.08;;;1.52;;
73515;SDS011;61763;51.416;5.442;2023-07-28T14:40:35;2.13;;;1.55;;
73515;SDS011;61763;51.416;5.442;2023-07-28T14:43:01;1.85;;;1.58;;
73515;SDS011;61763;51.416;5.442;2023-07-28T14:45:27;2.03;;;0.73;;
73515;SDS011;61763;51.416;5.442;2023-07-28T14:47:52;1.73;;;0.65;;
73515;SDS011;61763;51.416;5.442;2023-07-28T14:50:18;3.90;;;2.17;;
73515;SDS011;61763;51.416;5.442;2023-07-28T14:52:43;1.63;;;1.25;;
73515;SDS011;61763;51.416;5.442;2023-07-28T14:55:08;3.72;;;1.83;;
73515;SDS011;61763;51.416;5.442;2023-07-28T14:57:34;1.88;;;1.65;;
73515;SDS011;61763;51.416;5.442;2023-07-28T14:59:59;2.03;;;0.35;;